Terminal Aerodrome Forecast
Issued by NWS

Home | Current Version | Previous Version | Text Only | Print | Product List | Glossary On
Versions: 1 2 3 4 5 6 7 8 9 10 11 12 13 14 15 16 17 18
127
FTUS42 KGSP 201121
TAFGMU
TAF
KGMU 201121Z 2012/2112 VRB03KT P6SM FEW100
     FM202100 21006KT P6SM SCT070
     FM210200 VRB02KT P6SM FEW080=

USA.gov is the U.S. government's official web portal to all federal, state and local government web resources and services.